Latest Coastal Weather Observations for Gove Airport

IDD60701

Issued at 3:41 am CST Monday 29 May 2017 (issued every 10 minutes, with the page automatically refreshed every 10 minutes)

About coastal observations | Map of coastal stations | Coastal observations for NT | Marine services | Other Formats
Station Details ID: 014508 Name: GOVE AIRPORT Lat: -12.27 Lon: 136.82 Height: 51.6 m
Data from the previous 72 hours. | See also: Recent months at Gove Airport
Date/Time
CST
Temp
°C
Wind Pressure Rain since
9am
mm
Weather Cloud Vis
km
Sea
Height
m
Swell
Dir  Spd
kts
Gust
kts
hPa Trend Height
m
Period
s
Dir
29/03:30am 25.0 SE 8 10 1011.8 - 0.0 - - 10 - - - -
29/03:00am 25.2 SE 8 11 1011.9 R 0.0 - - 10 - - - -
29/02:30am 25.2 SE 8 13 1012.0 - 0.0 - - 10 - - - -
29/02:00am 25.3 SE 8 11 1012.1 - 0.0 - - 10 - - - -
29/01:30am 25.2 SE 8 11 1012.5 - 0.0 - - 10 - - - -
29/01:00am 25.5 SE 10 13 1012.6 - 0.0 - - 10 - - - -
29/12:30am 25.2 SE 9 12 1012.8 - 0.0 - - 10 - - - -
29/12:00am 25.0 SSE 8 10 1012.9 F 0.0 - - 10 - - - -
 
Date/Time
CST
Temp
°C
Wind Pressure Rain since
9am
mm
Weather Cloud Vis
km
Sea
Height
m
Swell
Dir  Spd
kts
Gust
kts
hPa Trend Height
m
Period
s
Dir
28/11:30pm 25.2 SSE 8 10 1013.1 - 0.0 - - 10 - - - -
28/11:00pm 25.3 SSE 9 13 1013.2 - 0.0 - - 10 - - - -
28/10:30pm 25.5 SE 9 12 1013.4 - 0.0 - - 10 - - - -
28/10:00pm 25.5 SE 9 14 1013.4 - 0.0 - - 10 - - - -
28/09:30pm 25.8 SE 9 14 1013.5 - 0.0 - Partly cloudy 10 - - - -
28/09:00pm 25.6 SSE 9 13 1013.3 F 0.0 - Mostly clear 10 - - - -
28/08:30pm 25.0 SE 6 8 1013.2 - 0.0 - - 10 - - - -
28/08:00pm 25.3 SSE 6 9 1013.0 - 0.0 - - 10 - - - -
28/07:30pm 25.8 SE 8 11 1012.7 - 0.0 - - 10 - - - -
28/07:00pm 25.8 SE 8 11 1012.3 - 0.0 - - 10 - - - -
28/06:30pm 26.2 SE 9 13 1012.1 - 0.0 - Partly cloudy 10 - - - -
28/06:00pm 26.6 SE 11 15 1011.7 R 0.0 - Mostly cloudy 10 - - - -
28/05:30pm 27.2 SE 14 19 1011.5 - 0.0 - Partly cloudy 10 - - - -
28/05:00pm 27.5 ESE 15 20 1011.3 - 0.0 - Partly cloudy 10 - - - -
28/04:30pm 27.8 SE 14 21 1011.2 - 0.0 - Partly cloudy 10 - - - -
28/04:00pm 27.9 ESE 14 19 1011.0 - 0.0 - Partly cloudy 10 - - - -
28/03:30pm 28.1 SE 16 21 1011.0 - 0.0 - Partly cloudy 10 - - - -
28/03:00pm 28.9 ESE 15 22 1010.9 S 0.0 - Cloudy 10 - - - -
28/02:30pm 28.8 ESE 13 20 1011.0 - 0.0 - Partly cloudy 10 - - - -
28/02:00pm 28.1 ESE 13 21 1011.3 - 0.0 - Partly cloudy 10 - - - -
28/01:30pm 28.3 SE 13 19 1011.5 - 0.0 - Partly cloudy 10 - - - -
28/01:00pm 29.5 ESE 16 24 1011.9 - 0.0 - Partly cloudy 10 - - - -
28/12:30pm 28.7 SE 15 21 1012.4 - 0.0 - Partly cloudy 10 - - - -
28/12:00pm 28.9 SE 18 22 1012.7 R 0.0 - Cloudy 10 - - - -
28/11:30am 28.1 SE 15 21 1012.9 - 0.0 - Partly cloudy 10 - - - -
28/11:00am 28.6 ESE 17 23 1013.1 - 0.0 - Partly cloudy 10 - - - -
28/10:30am 29.8 ESE 16 22 1013.2 - 0.0 - Partly cloudy 10 - - - -
28/10:00am 28.9 SE 13 19 1013.1 - 0.0 - Partly cloudy 10 - - - -
28/09:30am 27.9 SE 13 18 1013.3 - 0.0 - Partly cloudy 10 - - - -
28/09:00am 27.9 SE 13 16 1013.2 R 0.0 - - 10 - - - -
28/08:30am 27.5 SE 11 15 1013.0 - 0.0 - Partly cloudy 10 - - - -
28/08:00am 26.8 ESE 11 15 1012.6 - 0.0 - Partly cloudy 10 - - - -
28/07:30am 25.6 SE 7 9 1012.3 - 0.0 - Partly cloudy 10 - - - -
28/07:00am 24.8 SE 7 9 1012.0 - 0.0 - - 10 - - - -
28/06:30am 24.4 SSE 6 8 1011.6 - 0.0 - - 10 - - - -
28/06:00am 24.4 SE 6 8 1011.4 F 0.0 - - 10 - - - -
28/05:30am 24.3 SE 6 8 1011.2 - 0.0 - - 10 - - - -
28/05:00am 24.1 SE 6 7 1011.1 - 0.0 - - 10 - - - -
28/04:30am 23.7 SE 6 7 1011.0 - 0.0 - Partly cloudy 10 - - - -
28/04:00am 23.3 SE 5 6 1011.2 - 0.0 - Partly cloudy 10 - - - -
28/03:30am 23.6 SE 6 7 1011.5 - 0.0 - - 10 - - - -
28/03:00am 23.6 SE 6 7 1011.7 F 0.0 - - 10 - - - -
28/02:30am 24.4 SE 6 8 1012.0 - 0.0 - - 10 - - - -
28/02:00am 24.9 SE 8 10 1012.4 - 0.0 - - 10 - - - -
28/01:30am 24.8 SE 8 11 1012.6 - 0.0 - - 10 - - - -
28/01:00am 25.1 SE 8 11 1012.8 - 0.0 - - 10 - - - -
28/12:30am 25.4 SE 10 13 1013.0 - 0.0 - - 10 - - - -
28/12:00am 25.4 SE 9 13 1013.5 R 0.0 - - 10 - - - -
 
Date/Time
CST
Temp
°C
Wind Pressure Rain since
9am
mm
Weather Cloud Vis
km
Sea
Height
m
Swell
Dir  Spd
kts
Gust
kts
hPa Trend Height
m
Period
s
Dir
27/11:30pm 25.2 SE 9 12 1013.6 - 0.0 - - 10 - - - -
27/11:00pm 25.2 SE 9 12 1013.7 - 0.0 - - 10 - - - -
27/10:30pm 25.2 SE 7 11 1013.6 - 0.0 - - 10 - - - -
27/10:00pm 25.2 SE 8 11 1013.4 - 0.0 - - 10 - - - -
27/09:30pm 25.3 SE 9 12 1013.4 - 0.0 - - 10 - - - -
27/09:00pm 25.4 SE 9 11 1013.2 F 0.0 - - 10 - - - -
27/08:30pm 25.3 SE 8 10 1013.0 - 0.0 - - 10 - - - -
27/08:00pm 25.7 SE 9 13 1012.8 - 0.0 - - 10 - - - -
27/07:30pm 25.8 SE 9 13 1012.6 - 0.0 - - 10 - - - -
27/07:00pm 25.9 SE 9 13 1012.4 - 0.0 - Partly cloudy 10 - - - -
27/06:30pm 26.0 SE 9 12 1012.4 - 0.0 - - 10 - - - -
27/06:00pm 26.6 SE 10 14 1012.0 S 0.0 - Mostly clear 10 - - - -
27/05:30pm 27.3 SE 13 17 1011.7 - 0.0 - Partly cloudy 10 - - - -
27/05:00pm 27.7 ESE 13 17 1011.4 - 0.0 - Partly cloudy 10 - - - -
27/04:30pm 27.9 SE 16 20 1011.3 - 0.0 - Partly cloudy 10 - - - -
27/04:00pm 28.3 SE 15 20 1011.2 - 0.0 - Partly cloudy 10 - - - -
27/03:30pm 28.0 SE 15 20 1011.2 - 0.0 - Partly cloudy 10 - - - -
27/03:00pm 29.2 ESE 16 20 1011.3 R 0.0 - Cloudy 10 - - - -
27/02:30pm 29.3 ESE 17 21 1011.4 - 0.0 - Partly cloudy 10 - - - -
27/02:00pm 28.6 ESE 16 21 1011.5 - 0.0 - Partly cloudy 10 - - - -
27/01:30pm 29.5 ESE 16 22 1011.6 - 0.0 - Partly cloudy 10 - - - -
27/01:00pm 28.6 ESE 16 21 1012.0 - 0.0 - Partly cloudy 10 - - - -
27/12:30pm 28.6 ESE 15 23 1012.3 - 0.0 - Partly cloudy 10 - - - -
27/12:00pm 29.0 ESE 13 18 1012.6 R 0.0 - Cloudy 10 - - - -
27/11:30am 27.4 SE 15 22 1012.9 - 0.0 - Partly cloudy 10 - - - -
27/11:00am 28.5 ESE 12 17 1013.1 - 0.0 - Partly cloudy 10 - - - -
27/10:30am 28.9 ESE 13 19 1013.4 - 0.0 - Partly cloudy 10 - - - -
27/10:00am 28.2 ESE 14 20 1013.5 - 0.0 - Partly cloudy 10 - - - -
27/09:30am 27.8 SE 16 22 1013.4 - 0.0 - Partly cloudy 10 - - - -
27/09:00am 28.4 SE 13 21 1013.2 F 0.0 - Mostly cloudy 10 - - - -
27/08:30am 27.7 SE 11 15 1013.1 - 0.0 - Partly cloudy 10 - - - -
27/08:00am 27.2 SE 10 13 1012.9 - 0.0 - - 9 - - - -
27/07:30am 26.0 SE 7 9 1012.6 - 0.0 - Partly cloudy 10 - - - -
27/07:00am 25.4 SE 7 9 1012.4 - 0.0 - Partly cloudy 10 - - - -
27/06:30am 25.0 SE 8 10 1012.2 - 0.0 - Partly cloudy 10 - - - -
27/06:00am 24.8 SE 7 10 1011.9 F 0.0 - - 10 - - - -
27/05:30am 24.5 SE 6 9 1011.8 - 0.0 - - 10 - - - -
27/05:00am 24.5 SE 6 8 1011.7 - 0.0 - Partly cloudy 10 - - - -
27/04:30am 24.5 SE 6 8 1011.5 - 0.0 - - 10 - - - -
27/04:00am 24.8 SE 6 8 1011.6 - 0.0 - - 10 - - - -
27/03:30am 25.1 SSE 7 10 1011.7 - 0.0 - - 10 - - - -
27/03:00am 25.1 SE 7 9 1011.9 R 0.0 - Mostly cloudy 10 - - - -
27/02:30am 25.1 SE 7 9 1012.2 - 0.0 - - 10 - - - -
27/02:00am 25.3 SE 7 9 1012.5 - 0.0 - - 10 - - - -
27/01:30am 25.4 SSE 7 9 1012.7 - 0.0 - - 10 - - - -
27/01:00am 25.2 SE 7 9 1012.9 - 0.0 - - 10 - - - -
27/12:30am 25.2 SSE 7 11 1013.0 - 0.0 - - 10 - - - -
27/12:00am 25.4 SE 8 11 1013.1 F 0.0 - Mostly cloudy 10 - - - -
 
Date/Time
CST
Temp
°C
Wind Pressure Rain since
9am
mm
Weather Cloud Vis
km
Sea
Height
m
Swell
Dir  Spd
kts
Gust
kts
hPa Trend Height
m
Period
s
Dir
26/11:30pm 25.4 SE 8 11 1013.4 - 0.0 - Partly cloudy 10 - - - -
26/11:00pm 25.6 SE 9 13 1013.5 - 0.0 - - 10 - - - -
26/10:30pm 25.4 SE 9 11 1013.6 - 0.0 - - 10 - - - -
26/10:00pm 25.4 SE 8 11 1013.6 - 0.0 - - 10 - - - -
26/09:30pm 25.5 SE 8 11 1013.6 - 0.0 - - 10 - - - -
26/09:00pm 25.8 SE 9 13 1013.4 S 0.0 - - 10 - - - -
26/08:30pm 26.0 SE 9 13 1013.1 - 0.0 - - 10 - - - -
26/08:00pm 25.8 SE 7 11 1012.7 - 0.0 - - 10 - - - -
26/07:30pm 25.6 SE 7 10 1012.5 - 0.0 - - 10 - - - -
26/07:00pm 25.3 SE 7 9 1012.2 - 0.0 - - 10 - - - -
26/06:30pm 25.8 SE 8 11 1011.9 - 0.0 - - 10 - - - -
26/06:00pm 26.0 SE 6 8 1011.7 R 0.0 - Partly cloudy 10 - - - -
26/05:30pm 26.7 SE 10 15 1011.4 - 0.0 - - 10 - - - -
26/05:00pm 27.5 SE 14 21 1011.2 - 0.0 - - 10 - - - -
26/04:30pm 28.2 SE 15 19 1011.0 - 0.0 - - 10 - - - -
26/04:00pm 28.6 ESE 14 19 1010.8 - 0.0 - Partly cloudy 10 - - - -
26/03:30pm 28.9 SE 15 20 1010.8 - 0.0 - Mostly clear 10 - - - -
26/03:00pm 29.0 SE 14 21 1010.9 F 0.0 - Partly cloudy 10 - - - -
26/02:30pm 29.6 ESE 15 21 1011.0 - 0.0 - Mostly clear 10 - - - -
26/02:00pm 29.8 ESE 14 20 1011.2 - 0.0 - Mostly clear 10 - - - -
26/01:30pm 28.7 SE 16 20 1011.6 - 0.0 - Mostly clear 10 - - - -
26/01:00pm 29.3 ESE 17 23 1011.9 - 0.0 - Mostly clear 10 - - - -
26/12:30pm 29.0 ESE 15 20 1012.4 - 0.0 - Mostly clear 10 - - - -
26/12:00pm 28.7 ESE 16 23 1012.8 R 0.0 - Cloudy 10 - - - -
26/11:30am 30.0 ESE 16 22 1012.9 - 0.0 - Partly cloudy 10 - - - -
26/11:00am 29.7 ESE 18 24 1013.3 - 0.0 - Partly cloudy 10 - - - -
26/10:30am 29.7 ESE 14 20 1013.4 - 0.0 - Partly cloudy 10 - - - -
26/10:00am 28.7 ESE 17 22 1013.6 - 0.0 - Partly cloudy 10 - - - -
26/09:30am 28.3 ESE 14 19 1013.4 - 0.0 - Mostly clear 10 - - - -
26/09:00am 29.6 ESE 13 19 1013.2 R 0.0 - Cloudy 10 - - - -
26/08:30am 27.6 ESE 13 17 1013.0 - 0.0 - Partly cloudy 10 - - - -
26/08:00am 27.9 ESE 10 15 1012.7 - 0.0 - Mostly clear 10 - - - -
26/07:30am 25.9 SE 9 12 1012.3 - 0.0 - Mostly clear 10 - - - -
26/07:00am 25.6 ESE 8 10 1011.9 - 0.0 - Partly cloudy 10 - - - -
26/06:30am 25.3 SE 9 12 1011.7 - 0.0 - Partly cloudy 10 - - - -
26/06:00am 25.2 SE 9 13 1011.3 F 0.0 - Partly cloudy 10 - - - -
26/05:30am 25.5 ESE 10 13 1011.2 - 0.0 - Partly cloudy 10 - - - -
26/05:00am 24.4 SE 6 8 1011.0 - 0.0 - Partly cloudy 10 - - - -
26/04:30am 24.1 SE 7 9 1010.9 - 0.0 - - 10 - - - -
26/04:00am 24.1 SE 7 9 1011.1 - 0.0 - - 10 - - - -

Other Formats:

Comma delimited format used in spreadsheet applications
http://www.bom.gov.au/fwo/IDD60701/IDD60701.94150.axf

JavaScript Object Notation format (JSON) in row-major order
http://www.bom.gov.au/fwo/IDD60701/IDD60701.94150.json